sensor_id;sensor_type;location;lat;lon;timestamp;temperature;humidity
12291;DHT22;6208;48.956;9.076;2023-02-01T00:02:17;5.10;99.90
12291;DHT22;6208;48.956;9.076;2023-02-01T00:05:02;5.10;99.90
12291;DHT22;6208;48.956;9.076;2023-02-01T00:07:47;5.30;99.90
12291;DHT22;6208;48.956;9.076;2023-02-01T00:10:32;5.30;99.90
12291;DHT22;6208;48.956;9.076;2023-02-01T00:13:16;5.20;99.90
12291;DHT22;6208;48.956;9.076;2023-02-01T00:16:23;5.50;99.90
12291;DHT22;6208;48.956;9.076;2023-02-01T00:19:14;5.40;99.90
12291;DHT22;6208;48.956;9.076;2023-02-01T00:21:58;5.30;99.90
12291;DHT22;6208;48.956;9.076;2023-02-01T00:24:42;5.20;99.90
12291;DHT22;6208;48.956;9.076;2023-02-01T00:27:26;5.20;99.90
12291;DHT22;6208;48.956;9.076;2023-02-01T00:30:10;5.10;99.90
12291;DHT22;6208;48.956;9.076;2023-02-01T00:32:55;5.10;99.90
12291;DHT22;6208;48.956;9.076;2023-02-01T00:35:39;5.10;99.90
12291;DHT22;6208;48.956;9.076;2023-02-01T00:38:23;5.10;99.90
12291;DHT22;6208;48.956;9.076;2023-02-01T00:41:11;5.10;99.90
12291;DHT22;6208;48.956;9.076;2023-02-01T00:43:56;7.10;99.90
12291;DHT22;6208;48.956;9.076;2023-02-01T00:46:40;5.70;99.90
12291;DHT22;6208;48.956;9.076;2023-02-01T00:49:24;5.20;99.90
12291;DHT22;6208;48.956;9.076;2023-02-01T00:52:08;5.30;99.90
12291;DHT22;6208;48.956;9.076;2023-02-01T00:54:52;5.20;99.90
12291;DHT22;6208;48.956;9.076;2023-02-01T00:57:36;5.20;99.90
12291;DHT22;6208;48.956;9.076;2023-02-01T01:00:20;5.20;99.90
12291;DHT22;6208;48.956;9.076;2023-02-01T01:03:05;5.20;99.90
12291;DHT22;6208;48.956;9.076;2023-02-01T01:06:07;5.30;99.90
12291;DHT22;6208;48.956;9.076;2023-02-01T01:08:53;5.30;99.90
12291;DHT22;6208;48.956;9.076;2023-02-01T01:11:38;7.10;99.90
12291;DHT22;6208;48.956;9.076;2023-02-01T01:14:22;7.30;99.90
12291;DHT22;6208;48.956;9.076;2023-02-01T01:17:06;5.80;99.90
12291;DHT22;6208;48.956;9.076;2023-02-01T01:19:50;5.40;99.90
12291;DHT22;6208;48.956;9.076;2023-02-01T01:22:34;5.30;99.90
12291;DHT22;6208;48.956;9.076;2023-02-01T01:25:19;8.00;99.90
12291;DHT22;6208;48.956;9.076;2023-02-01T01:28:03;5.30;99.90
12291;DHT22;6208;48.956;9.076;2023-02-01T01:30:47;5.40;99.90
12291;DHT22;6208;48.956;9.076;2023-02-01T01:33:31;5.70;99.90
12291;DHT22;6208;48.956;9.076;2023-02-01T01:36:16;5.30;99.90
12291;DHT22;6208;48.956;9.076;2023-02-01T01:39:00;7.40;99.90
12291;DHT22;6208;48.956;9.076;2023-02-01T01:41:44;5.50;99.90
12291;DHT22;6208;48.956;9.076;2023-02-01T01:47:56;5.50;99.90
12291;DHT22;6208;48.956;9.076;2023-02-01T01:50:54;5.50;99.90
12291;DHT22;6208;48.956;9.076;2023-02-01T01:54:05;7.50;99.90
12291;DHT22;6208;48.956;9.076;2023-02-01T01:56:53;5.40;99.90
12291;DHT22;6208;48.956;9.076;2023-02-01T01:59:41;8.20;99.90
12291;DHT22;6208;48.956;9.076;2023-02-01T02:02:26;7.10;99.90
12291;DHT22;6208;48.956;9.076;2023-02-01T02:05:11;5.50;99.90
12291;DHT22;6208;48.956;9.076;2023-02-01T02:07:59;5.40;99.90
12291;DHT22;6208;48.956;9.076;2023-02-01T02:10:44;5.40;99.90
12291;DHT22;6208;48.956;9.076;2023-02-01T02:13:46;5.40;99.90
12291;DHT22;6208;48.956;9.076;2023-02-01T02:16:39;5.40;99.90
12291;DHT22;6208;48.956;9.076;2023-02-01T02:22:44;5.40;99.90
12291;DHT22;6208;48.956;9.076;2023-02-01T02:34:52;5.60;99.90
12291;DHT22;6208;48.956;9.076;2023-02-01T02:37:58;5.50;99.90
12291;DHT22;6208;48.956;9.076;2023-02-01T02:43:49;5.40;99.90
12291;DHT22;6208;48.956;9.076;2023-02-01T02:46:57;5.40;99.90
12291;DHT22;6208;48.956;9.076;2023-02-01T02:50:17;5.50;99.90
12291;DHT22;6208;48.956;9.076;2023-02-01T02:53:38;5.60;99.90
12291;DHT22;6208;48.956;9.076;2023-02-01T02:56:43;6.00;99.90
12291;DHT22;6208;48.956;9.076;2023-02-01T02:59:47;5.50;99.90
12291;DHT22;6208;48.956;9.076;2023-02-01T03:02:51;5.60;99.90
12291;DHT22;6208;48.956;9.076;2023-02-01T03:05:56;5.50;99.90
12291;DHT22;6208;48.956;9.076;2023-02-01T03:08:40;7.20;99.90
12291;DHT22;6208;48.956;9.076;2023-02-01T03:11:29;5.60;99.90
12291;DHT22;6208;48.956;9.076;2023-02-01T03:14:38;7.30;99.90
12291;DHT22;6208;48.956;9.076;2023-02-01T03:17:29;6.40;99.90
12291;DHT22;6208;48.956;9.076;2023-02-01T03:20:17;6.10;99.90
12291;DHT22;6208;48.956;9.076;2023-02-01T03:23:04;5.90;99.90
12291;DHT22;6208;48.956;9.076;2023-02-01T03:25:51;8.50;99.90
12291;DHT22;6208;48.956;9.076;2023-02-01T03:28:39;6.10;99.90
12291;DHT22;6208;48.956;9.076;2023-02-01T03:31:27;6.20;99.90
12291;DHT22;6208;48.956;9.076;2023-02-01T03:37:04;6.10;99.90
12291;DHT22;6208;48.956;9.076;2023-02-01T03:40:01;5.80;99.90
12291;DHT22;6208;48.956;9.076;2023-02-01T03:42:50;5.70;99.90
12291;DHT22;6208;48.956;9.076;2023-02-01T03:45:43;5.70;99.90
12291;DHT22;6208;48.956;9.076;2023-02-01T03:48:29;6.90;99.90
12291;DHT22;6208;48.956;9.076;2023-02-01T03:51:14;5.60;99.90
12291;DHT22;6208;48.956;9.076;2023-02-01T03:54:01;7.70;99.90
12291;DHT22;6208;48.956;9.076;2023-02-01T03:56:47;5.70;99.90
12291;DHT22;6208;48.956;9.076;2023-02-01T03:59:32;5.60;99.90
12291;DHT22;6208;48.956;9.076;2023-02-01T04:02:16;5.70;99.90
12291;DHT22;6208;48.956;9.076;2023-02-01T04:05:01;8.70;99.90
12291;DHT22;6208;48.956;9.076;2023-02-01T04:07:44;7.00;99.90
12291;DHT22;6208;48.956;9.076;2023-02-01T04:10:28;5.60;99.90
12291;DHT22;6208;48.956;9.076;2023-02-01T04:13:13;5.70;99.90
12291;DHT22;6208;48.956;9.076;2023-02-01T04:15:57;5.70;99.90
12291;DHT22;6208;48.956;9.076;2023-02-01T04:18:41;8.70;99.90
12291;DHT22;6208;48.956;9.076;2023-02-01T04:21:26;6.20;99.90
12291;DHT22;6208;48.956;9.076;2023-02-01T04:24:10;7.60;99.90
12291;DHT22;6208;48.956;9.076;2023-02-01T04:26:55;5.70;99.90
12291;DHT22;6208;48.956;9.076;2023-02-01T04:29:39;5.70;99.90
12291;DHT22;6208;48.956;9.076;2023-02-01T04:32:23;5.80;99.90
12291;DHT22;6208;48.956;9.076;2023-02-01T04:35:08;5.80;99.90
12291;DHT22;6208;48.956;9.076;2023-02-01T04:37:52;5.70;99.90
12291;DHT22;6208;48.956;9.076;2023-02-01T04:40:36;8.60;99.90
12291;DHT22;6208;48.956;9.076;2023-02-01T04:43:21;5.80;99.90
12291;DHT22;6208;48.956;9.076;2023-02-01T04:46:05;8.10;99.90
12291;DHT22;6208;48.956;9.076;2023-02-01T04:48:50;5.80;99.90
12291;DHT22;6208;48.956;9.076;2023-02-01T04:51:34;5.90;99.90
12291;DHT22;6208;48.956;9.076;2023-02-01T04:54:18;5.80;99.90
12291;DHT22;6208;48.956;9.076;2023-02-01T04:57:02;5.70;99.90
12291;DHT22;6208;48.956;9.076;2023-02-01T04:59:46;5.70;99.90
12291;DHT22;6208;48.956;9.076;2023-02-01T05:02:30;5.50;99.90
12291;DHT22;6208;48.956;9.076;2023-02-01T05:05:16;5.60;99.90
12291;DHT22;6208;48.956;9.076;2023-02-01T05:08:00;5.60;99.90
12291;DHT22;6208;48.956;9.076;2023-02-01T05:10:44;6.70;99.90
12291;DHT22;6208;48.956;9.076;2023-02-01T05:13:29;5.60;99.90
12291;DHT22;6208;48.956;9.076;2023-02-01T05:16:32;8.50;99.90
12291;DHT22;6208;48.956;9.076;2023-02-01T05:19:17;5.40;99.90
12291;DHT22;6208;48.956;9.076;2023-02-01T05:22:01;5.40;99.90
12291;DHT22;6208;48.956;9.076;2023-02-01T05:24:45;5.50;99.90
12291;DHT22;6208;48.956;9.076;2023-02-01T05:27:30;8.40;99.90
12291;DHT22;6208;48.956;9.076;2023-02-01T05:30:15;5.30;99.90
12291;DHT22;6208;48.956;9.076;2023-02-01T05:32:59;5.50;99.90
12291;DHT22;6208;48.956;9.076;2023-02-01T05:35:43;5.60;99.90
12291;DHT22;6208;48.956;9.076;2023-02-01T05:38:27;5.70;99.90
12291;DHT22;6208;48.956;9.076;2023-02-01T05:41:13;5.70;99.90
12291;DHT22;6208;48.956;9.076;2023-02-01T05:43:57;5.70;99.90
12291;DHT22;6208;48.956;9.076;2023-02-01T05:46:41;5.60;99.90
12291;DHT22;6208;48.956;9.076;2023-02-01T05:49:25;8.20;99.90
12291;DHT22;6208;48.956;9.076;2023-02-01T05:52:10;5.60;99.90
12291;DHT22;6208;48.956;9.076;2023-02-01T05:54:54;5.70;99.90
12291;DHT22;6208;48.956;9.076;2023-02-01T05:57:38;6.00;99.90
12291;DHT22;6208;48.956;9.076;2023-02-01T06:00:22;5.50;99.90
12291;DHT22;6208;48.956;9.076;2023-02-01T06:03:06;5.50;99.90
12291;DHT22;6208;48.956;9.076;2023-02-01T06:05:50;5.50;99.90
12291;DHT22;6208;48.956;9.076;2023-02-01T06:08:35;6.70;99.90
12291;DHT22;6208;48.956;9.076;2023-02-01T06:11:19;5.50;99.90
12291;DHT22;6208;48.956;9.076;2023-02-01T06:14:03;5.40;99.90
12291;DHT22;6208;48.956;9.076;2023-02-01T06:16:47;5.50;99.90
12291;DHT22;6208;48.956;9.076;2023-02-01T06:19:31;5.40;99.90
12291;DHT22;6208;48.956;9.076;2023-02-01T06:22:15;5.40;99.90
12291;DHT22;6208;48.956;9.076;2023-02-01T06:24:59;5.40;99.90
12291;DHT22;6208;48.956;9.076;2023-02-01T06:27:43;5.40;99.90
12291;DHT22;6208;48.956;9.076;2023-02-01T06:30:31;6.00;99.90
12291;DHT22;6208;48.956;9.076;2023-02-01T06:33:15;5.40;99.90
12291;DHT22;6208;48.956;9.076;2023-02-01T06:36:00;5.50;99.90
12291;DHT22;6208;48.956;9.076;2023-02-01T06:38:46;5.30;99.90
12291;DHT22;6208;48.956;9.076;2023-02-01T06:41:30;6.20;99.90
12291;DHT22;6208;48.956;9.076;2023-02-01T06:44:15;5.50;99.90
12291;DHT22;6208;48.956;9.076;2023-02-01T06:47:00;5.50;99.90
12291;DHT22;6208;48.956;9.076;2023-02-01T06:49:44;6.30;99.90
12291;DHT22;6208;48.956;9.076;2023-02-01T06:52:28;5.50;99.90
12291;DHT22;6208;48.956;9.076;2023-02-01T06:55:13;5.60;99.90
12291;DHT22;6208;48.956;9.076;2023-02-01T06:57:57;5.60;99.90
12291;DHT22;6208;48.956;9.076;2023-02-01T07:00:41;8.30;99.90
12291;DHT22;6208;48.956;9.076;2023-02-01T07:03:25;7.10;99.90
12291;DHT22;6208;48.956;9.076;2023-02-01T07:06:09;8.00;99.90
12291;DHT22;6208;48.956;9.076;2023-02-01T07:08:54;5.70;99.90
12291;DHT22;6208;48.956;9.076;2023-02-01T07:11:41;5.60;99.90
12291;DHT22;6208;48.956;9.076;2023-02-01T07:14:27;5.60;99.90
12291;DHT22;6208;48.956;9.076;2023-02-01T07:17:11;5.60;99.90
12291;DHT22;6208;48.956;9.076;2023-02-01T07:19:56;7.10;99.90
12291;DHT22;6208;48.956;9.076;2023-02-01T07:22:40;5.60;99.90
12291;DHT22;6208;48.956;9.076;2023-02-01T07:25:24;5.60;99.90
12291;DHT22;6208;48.956;9.076;2023-02-01T07:28:09;5.50;99.90
12291;DHT22;6208;48.956;9.076;2023-02-01T07:30:53;5.50;99.90
12291;DHT22;6208;48.956;9.076;2023-02-01T07:33:37;5.60;99.90
12291;DHT22;6208;48.956;9.076;2023-02-01T07:36:21;5.80;99.90
12291;DHT22;6208;48.956;9.076;2023-02-01T07:39:06;5.70;99.90
12291;DHT22;6208;48.956;9.076;2023-02-01T07:41:50;5.60;99.90
12291;DHT22;6208;48.956;9.076;2023-02-01T07:44:34;5.70;99.90
12291;DHT22;6208;48.956;9.076;2023-02-01T07:47:18;5.60;99.90
12291;DHT22;6208;48.956;9.076;2023-02-01T07:50:02;7.40;99.90
12291;DHT22;6208;48.956;9.076;2023-02-01T07:52:46;5.50;99.90
12291;DHT22;6208;48.956;9.076;2023-02-01T07:55:30;5.60;99.90
12291;DHT22;6208;48.956;9.076;2023-02-01T07:58:15;5.60;99.90
12291;DHT22;6208;48.956;9.076;2023-02-01T08:00:59;5.40;99.90
12291;DHT22;6208;48.956;9.076;2023-02-01T08:04:03;5.50;99.90
12291;DHT22;6208;48.956;9.076;2023-02-01T08:06:47;5.50;99.90
12291;DHT22;6208;48.956;9.076;2023-02-01T08:09:31;5.70;99.90
12291;DHT22;6208;48.956;9.076;2023-02-01T08:12:15;5.70;99.90
12291;DHT22;6208;48.956;9.076;2023-02-01T08:14:59;5.90;99.90
12291;DHT22;6208;48.956;9.076;2023-02-01T08:17:50;5.70;99.90
12291;DHT22;6208;48.956;9.076;2023-02-01T08:20:35;6.50;99.90
12291;DHT22;6208;48.956;9.076;2023-02-01T08:23:20;7.50;99.90
12291;DHT22;6208;48.956;9.076;2023-02-01T08:26:10;6.20;99.90
12291;DHT22;6208;48.956;9.076;2023-02-01T08:28:57;5.80;99.90
12291;DHT22;6208;48.956;9.076;2023-02-01T08:31:42;5.80;99.90
12291;DHT22;6208;48.956;9.076;2023-02-01T08:34:27;5.80;99.90
12291;DHT22;6208;48.956;9.076;2023-02-01T08:37:11;5.90;99.90
12291;DHT22;6208;48.956;9.076;2023-02-01T08:39:56;5.90;99.90
12291;DHT22;6208;48.956;9.076;2023-02-01T08:42:40;5.90;99.90
12291;DHT22;6208;48.956;9.076;2023-02-01T08:45:37;6.00;99.90
12291;DHT22;6208;48.956;9.076;2023-02-01T08:48:21;7.50;99.90
12291;DHT22;6208;48.956;9.076;2023-02-01T08:51:09;5.90;99.90
12291;DHT22;6208;48.956;9.076;2023-02-01T08:53:54;5.90;99.90
12291;DHT22;6208;48.956;9.076;2023-02-01T08:56:38;7.40;99.90
12291;DHT22;6208;48.956;9.076;2023-02-01T08:59:22;5.90;99.90
12291;DHT22;6208;48.956;9.076;2023-02-01T09:02:07;6.00;99.90
12291;DHT22;6208;48.956;9.076;2023-02-01T09:04:52;5.90;99.90
12291;DHT22;6208;48.956;9.076;2023-02-01T09:07:36;8.00;99.90
12291;DHT22;6208;48.956;9.076;2023-02-01T09:10:21;6.80;99.90
12291;DHT22;6208;48.956;9.076;2023-02-01T09:13:05;5.90;99.90
12291;DHT22;6208;48.956;9.076;2023-02-01T09:15:51;5.90;99.90
12291;DHT22;6208;48.956;9.076;2023-02-01T09:18:35;5.90;99.90
12291;DHT22;6208;48.956;9.076;2023-02-01T09:21:19;5.90;99.90
12291;DHT22;6208;48.956;9.076;2023-02-01T09:24:03;6.00;99.90
12291;DHT22;6208;48.956;9.076;2023-02-01T09:26:48;5.90;99.90
12291;DHT22;6208;48.956;9.076;2023-02-01T09:29:33;6.30;99.90
12291;DHT22;6208;48.956;9.076;2023-02-01T09:32:16;6.00;99.90
12291;DHT22;6208;48.956;9.076;2023-02-01T09:35:01;6.00;99.90
12291;DHT22;6208;48.956;9.076;2023-02-01T09:37:45;6.00;99.90
12291;DHT22;6208;48.956;9.076;2023-02-01T09:40:29;6.00;99.90
12291;DHT22;6208;48.956;9.076;2023-02-01T09:49:04;7.00;99.90
12291;DHT22;6208;48.956;9.076;2023-02-01T09:51:51;6.20;99.90
12291;DHT22;6208;48.956;9.076;2023-02-01T09:54:40;6.40;99.90
12291;DHT22;6208;48.956;9.076;2023-02-01T09:58:16;6.40;99.90
12291;DHT22;6208;48.956;9.076;2023-02-01T10:00:41;6.50;99.80
12291;DHT22;6208;48.956;9.076;2023-02-01T10:03:33;6.60;99.50
12291;DHT22;6208;48.956;9.076;2023-02-01T10:06:33;6.60;98.60
12291;DHT22;6208;48.956;9.076;2023-02-01T10:09:47;6.50;99.00
12291;DHT22;6208;48.956;9.076;2023-02-01T10:19:13;6.50;98.30
12291;DHT22;6208;48.956;9.076;2023-02-01T10:22:15;6.60;98.10
12291;DHT22;6208;48.956;9.076;2023-02-01T10:25:26;6.60;98.30
12291;DHT22;6208;48.956;9.076;2023-02-01T10:28:16;6.60;97.80
12291;DHT22;6208;48.956;9.076;2023-02-01T10:31:02;6.70;98.30
12291;DHT22;6208;48.956;9.076;2023-02-01T10:33:49;6.70;98.20
12291;DHT22;6208;48.956;9.076;2023-02-01T10:36:44;6.60;98.30
12291;DHT22;6208;48.956;9.076;2023-02-01T10:39:29;6.50;98.50
12291;DHT22;6208;48.956;9.076;2023-02-01T10:42:14;6.50;98.70
12291;DHT22;6208;48.956;9.076;2023-02-01T10:45:02;6.80;98.60
12291;DHT22;6208;48.956;9.076;2023-02-01T10:47:50;6.60;98.30
12291;DHT22;6208;48.956;9.076;2023-02-01T10:50:49;6.50;97.80
12291;DHT22;6208;48.956;9.076;2023-02-01T10:53:48;6.50;98.40
12291;DHT22;6208;48.956;9.076;2023-02-01T10:56:37;6.60;98.10
12291;DHT22;6208;48.956;9.076;2023-02-01T10:59:25;6.60;98.20
12291;DHT22;6208;48.956;9.076;2023-02-01T11:02:22;6.60;98.00
12291;DHT22;6208;48.956;9.076;2023-02-01T11:05:11;6.50;98.00
12291;DHT22;6208;48.956;9.076;2023-02-01T11:07:59;6.50;97.60
12291;DHT22;6208;48.956;9.076;2023-02-01T11:10:44;6.40;98.20
12291;DHT22;6208;48.956;9.076;2023-02-01T11:13:32;6.40;98.30
12291;DHT22;6208;48.956;9.076;2023-02-01T11:16:21;6.50;98.10
12291;DHT22;6208;48.956;9.076;2023-02-01T11:19:06;8.70;99.10
12291;DHT22;6208;48.956;9.076;2023-02-01T11:21:55;6.60;98.00
12291;DHT22;6208;48.956;9.076;2023-02-01T11:24:44;6.50;98.00
12291;DHT22;6208;48.956;9.076;2023-02-01T11:27:33;6.40;97.40
12291;DHT22;6208;48.956;9.076;2023-02-01T11:33:17;6.50;97.10
12291;DHT22;6208;48.956;9.076;2023-02-01T11:36:15;9.70;98.00
12291;DHT22;6208;48.956;9.076;2023-02-01T11:42:16;6.50;96.80
12291;DHT22;6208;48.956;9.076;2023-02-01T11:45:28;6.50;96.60
12291;DHT22;6208;48.956;9.076;2023-02-01T11:48:15;6.50;96.20
12291;DHT22;6208;48.956;9.076;2023-02-01T11:52:03;6.60;96.00
12291;DHT22;6208;48.956;9.076;2023-02-01T11:54:49;6.60;95.70
12291;DHT22;6208;48.956;9.076;2023-02-01T12:03:11;6.80;95.60
12291;DHT22;6208;48.956;9.076;2023-02-01T12:06:51;6.70;95.40
12291;DHT22;6208;48.956;9.076;2023-02-01T12:12:47;6.70;95.50
12291;DHT22;6208;48.956;9.076;2023-02-01T12:21:57;6.60;95.70
12291;DHT22;6208;48.956;9.076;2023-02-01T12:28:17;6.50;96.20
12291;DHT22;6208;48.956;9.076;2023-02-01T12:31:19;6.50;96.20
12291;DHT22;6208;48.956;9.076;2023-02-01T12:43:07;6.60;95.70
12291;DHT22;6208;48.956;9.076;2023-02-01T12:45:58;6.70;95.80
12291;DHT22;6208;48.956;9.076;2023-02-01T12:48:58;6.70;96.00
12291;DHT22;6208;48.956;9.076;2023-02-01T12:51:46;6.60;95.40
12291;DHT22;6208;48.956;9.076;2023-02-01T12:54:48;7.90;96.20
12291;DHT22;6208;48.956;9.076;2023-02-01T12:57:40;6.70;95.90
12291;DHT22;6208;48.956;9.076;2023-02-01T13:00:36;6.80;95.50
12291;DHT22;6208;48.956;9.076;2023-02-01T13:04:12;6.90;95.90
12291;DHT22;6208;48.956;9.076;2023-02-01T13:07:07;6.80;96.40
12291;DHT22;6208;48.956;9.076;2023-02-01T13:09:59;6.70;96.40
12291;DHT22;6208;48.956;9.076;2023-02-01T13:12:51;6.50;97.10
12291;DHT22;6208;48.956;9.076;2023-02-01T13:15:58;6.50;97.20
12291;DHT22;6208;48.956;9.076;2023-02-01T13:18:48;6.50;97.60
12291;DHT22;6208;48.956;9.076;2023-02-01T13:21:39;7.20;98.00
12291;DHT22;6208;48.956;9.076;2023-02-01T13:24:36;6.50;97.90
12291;DHT22;6208;48.956;9.076;2023-02-01T13:27:21;6.60;97.80
12291;DHT22;6208;48.956;9.076;2023-02-01T13:30:15;6.40;98.10
12291;DHT22;6208;48.956;9.076;2023-02-01T13:41:54;6.30;98.20
12291;DHT22;6208;48.956;9.076;2023-02-01T13:44:44;6.30;98.20
12291;DHT22;6208;48.956;9.076;2023-02-01T13:47:41;6.40;98.30
12291;DHT22;6208;48.956;9.076;2023-02-01T13:53:18;6.40;98.20
12291;DHT22;6208;48.956;9.076;2023-02-01T13:56:11;6.40;97.50
12291;DHT22;6208;48.956;9.076;2023-02-01T13:58:56;6.60;97.30
12291;DHT22;6208;48.956;9.076;2023-02-01T14:02:59;8.00;98.00
12291;DHT22;6208;48.956;9.076;2023-02-01T14:08:37;6.50;97.50
12291;DHT22;6208;48.956;9.076;2023-02-01T14:11:34;6.50;97.60
12291;DHT22;6208;48.956;9.076;2023-02-01T14:23:20;6.40;97.70
12291;DHT22;6208;48.956;9.076;2023-02-01T14:26:07;6.20;98.10
12291;DHT22;6208;48.956;9.076;2023-02-01T14:28:56;6.30;98.20
12291;DHT22;6208;48.956;9.076;2023-02-01T14:35:02;6.50;98.10
12291;DHT22;6208;48.956;9.076;2023-02-01T14:37:59;6.40;97.90
12291;DHT22;6208;48.956;9.076;2023-02-01T14:40:46;6.30;97.90
12291;DHT22;6208;48.956;9.076;2023-02-01T14:56:07;6.30;96.60
12291;DHT22;6208;48.956;9.076;2023-02-01T14:59:00;6.40;96.80
12291;DHT22;6208;48.956;9.076;2023-02-01T15:01:52;6.50;96.90
12291;DHT22;6208;48.956;9.076;2023-02-01T15:04:41;6.40;96.50
12291;DHT22;6208;48.956;9.076;2023-02-01T15:07:27;6.50;96.60
12291;DHT22;6208;48.956;9.076;2023-02-01T15:10:12;9.40;97.70
12291;DHT22;6208;48.956;9.076;2023-02-01T15:12:57;6.40;96.10
12291;DHT22;6208;48.956;9.076;2023-02-01T15:15:41;6.50;96.10
12291;DHT22;6208;48.956;9.076;2023-02-01T15:18:25;6.40;95.60
12291;DHT22;6208;48.956;9.076;2023-02-01T15:21:19;6.40;95.30
12291;DHT22;6208;48.956;9.076;2023-02-01T15:24:25;6.50;95.40
12291;DHT22;6208;48.956;9.076;2023-02-01T15:27:10;6.40;95.20
12291;DHT22;6208;48.956;9.076;2023-02-01T15:30:05;6.50;95.50
12291;DHT22;6208;48.956;9.076;2023-02-01T15:32:51;6.60;95.30
12291;DHT22;6208;48.956;9.076;2023-02-01T15:35:45;6.50;95.70
12291;DHT22;6208;48.956;9.076;2023-02-01T15:38:34;6.50;95.40
12291;DHT22;6208;48.956;9.076;2023-02-01T15:41:20;6.40;95.60
12291;DHT22;6208;48.956;9.076;2023-02-01T15:44:20;6.50;95.40
12291;DHT22;6208;48.956;9.076;2023-02-01T15:47:15;6.60;95.40
12291;DHT22;6208;48.956;9.076;2023-02-01T15:50:01;6.50;95.60
12291;DHT22;6208;48.956;9.076;2023-02-01T15:52:48;8.40;96.50
12291;DHT22;6208;48.956;9.076;2023-02-01T15:58:22;6.40;95.80
12291;DHT22;6208;48.956;9.076;2023-02-01T17:54:14;6.20;95.60
12291;DHT22;6208;48.956;9.076;2023-02-01T17:57:00;6.30;95.70
12291;DHT22;6208;48.956;9.076;2023-02-01T17:59:46;7.40;96.70
12291;DHT22;6208;48.956;9.076;2023-02-01T18:02:30;6.40;95.90
12291;DHT22;6208;48.956;9.076;2023-02-01T18:05:22;6.40;95.90
12291;DHT22;6208;48.956;9.076;2023-02-01T18:08:09;7.00;96.20
12291;DHT22;6208;48.956;9.076;2023-02-01T18:11:00;6.40;95.80
12291;DHT22;6208;48.956;9.076;2023-02-01T18:13:45;6.40;95.70
12291;DHT22;6208;48.956;9.076;2023-02-01T18:16:32;6.40;95.90
12291;DHT22;6208;48.956;9.076;2023-02-01T18:19:16;7.40;96.50
12291;DHT22;6208;48.956;9.076;2023-02-01T18:22:01;6.40;96.20
12291;DHT22;6208;48.956;9.076;2023-02-01T18:24:45;6.50;96.20
12291;DHT22;6208;48.956;9.076;2023-02-01T18:27:30;6.30;96.10
12291;DHT22;6208;48.956;9.076;2023-02-01T18:30:14;8.20;97.10
12291;DHT22;6208;48.956;9.076;2023-02-01T18:32:59;6.30;96.20
12291;DHT22;6208;48.956;9.076;2023-02-01T18:35:43;6.40;96.00
12291;DHT22;6208;48.956;9.076;2023-02-01T18:38:28;6.30;96.00
12291;DHT22;6208;48.956;9.076;2023-02-01T18:41:19;6.40;96.10
12291;DHT22;6208;48.956;9.076;2023-02-01T18:44:12;6.30;96.00
12291;DHT22;6208;48.956;9.076;2023-02-01T18:46:58;6.40;96.00
12291;DHT22;6208;48.956;9.076;2023-02-01T18:49:43;6.30;95.90
12291;DHT22;6208;48.956;9.076;2023-02-01T18:52:27;6.40;95.80
12291;DHT22;6208;48.956;9.076;2023-02-01T18:55:12;6.30;95.80
12291;DHT22;6208;48.956;9.076;2023-02-01T18:57:56;6.40;95.60
12291;DHT22;6208;48.956;9.076;2023-02-01T19:00:41;6.40;95.40
12291;DHT22;6208;48.956;9.076;2023-02-01T19:03:26;6.40;95.40
12291;DHT22;6208;48.956;9.076;2023-02-01T19:06:12;6.40;95.30
12291;DHT22;6208;48.956;9.076;2023-02-01T19:08:56;6.40;95.20
12291;DHT22;6208;48.956;9.076;2023-02-01T19:11:40;7.40;95.60
12291;DHT22;6208;48.956;9.076;2023-02-01T19:14:24;6.50;95.10
12291;DHT22;6208;48.956;9.076;2023-02-01T19:17:09;6.40;95.20
12291;DHT22;6208;48.956;9.076;2023-02-01T19:19:53;6.60;95.00
12291;DHT22;6208;48.956;9.076;2023-02-01T19:22:37;7.60;95.20
12291;DHT22;6208;48.956;9.076;2023-02-01T19:25:23;6.60;94.40
12291;DHT22;6208;48.956;9.076;2023-02-01T19:28:08;6.50;94.50
12291;DHT22;6208;48.956;9.076;2023-02-01T19:31:02;6.60;94.50
12291;DHT22;6208;48.956;9.076;2023-02-01T19:33:47;6.50;94.70
12291;DHT22;6208;48.956;9.076;2023-02-01T19:36:31;6.50;94.90
12291;DHT22;6208;48.956;9.076;2023-02-01T19:39:15;6.60;94.70
12291;DHT22;6208;48.956;9.076;2023-02-01T19:41:59;6.60;94.80
12291;DHT22;6208;48.956;9.076;2023-02-01T19:44:44;6.60;94.70
12291;DHT22;6208;48.956;9.076;2023-02-01T19:47:29;6.60;95.00
12291;DHT22;6208;48.956;9.076;2023-02-01T19:50:20;6.60;95.30
12291;DHT22;6208;48.956;9.076;2023-02-01T19:53:04;6.50;95.30
12291;DHT22;6208;48.956;9.076;2023-02-01T19:55:49;6.60;95.40
12291;DHT22;6208;48.956;9.076;2023-02-01T19:58:33;6.70;95.40
12291;DHT22;6208;48.956;9.076;2023-02-01T20:01:18;8.10;96.10
12291;DHT22;6208;48.956;9.076;2023-02-01T20:04:03;6.50;95.40
12291;DHT22;6208;48.956;9.076;2023-02-01T20:06:49;6.50;95.40
12291;DHT22;6208;48.956;9.076;2023-02-01T20:09:34;6.60;95.10
12291;DHT22;6208;48.956;9.076;2023-02-01T20:12:20;6.60;95.10
12291;DHT22;6208;48.956;9.076;2023-02-01T20:15:05;6.60;95.20
12291;DHT22;6208;48.956;9.076;2023-02-01T20:17:51;6.60;95.20
12291;DHT22;6208;48.956;9.076;2023-02-01T20:20:35;6.70;95.20
12291;DHT22;6208;48.956;9.076;2023-02-01T20:23:19;6.60;95.20
12291;DHT22;6208;48.956;9.076;2023-02-01T20:26:06;6.70;95.40
12291;DHT22;6208;48.956;9.076;2023-02-01T20:28:51;6.70;95.50
12291;DHT22;6208;48.956;9.076;2023-02-01T20:31:36;6.90;95.60
12291;DHT22;6208;48.956;9.076;2023-02-01T20:34:21;6.70;95.60
12291;DHT22;6208;48.956;9.076;2023-02-01T20:37:06;6.70;95.60
12291;DHT22;6208;48.956;9.076;2023-02-01T20:39:50;6.70;95.60
12291;DHT22;6208;48.956;9.076;2023-02-01T20:42:34;6.70;95.60
12291;DHT22;6208;48.956;9.076;2023-02-01T20:45:19;7.20;96.00
12291;DHT22;6208;48.956;9.076;2023-02-01T20:48:03;6.60;95.80
12291;DHT22;6208;48.956;9.076;2023-02-01T20:50:55;6.60;95.90
12291;DHT22;6208;48.956;9.076;2023-02-01T20:53:39;6.60;96.00
12291;DHT22;6208;48.956;9.076;2023-02-01T20:56:24;6.60;95.90
12291;DHT22;6208;48.956;9.076;2023-02-01T20:59:08;6.70;95.90
12291;DHT22;6208;48.956;9.076;2023-02-01T21:01:55;6.70;96.00
12291;DHT22;6208;48.956;9.076;2023-02-01T21:04:39;6.70;95.80
12291;DHT22;6208;48.956;9.076;2023-02-01T21:07:23;6.70;95.90
12291;DHT22;6208;48.956;9.076;2023-02-01T21:10:08;6.60;95.70
12291;DHT22;6208;48.956;9.076;2023-02-01T21:12:53;6.70;95.70
12291;DHT22;6208;48.956;9.076;2023-02-01T21:15:37;6.90;95.90
12291;DHT22;6208;48.956;9.076;2023-02-01T21:18:26;6.60;95.70
12291;DHT22;6208;48.956;9.076;2023-02-01T21:21:12;6.70;95.70
12291;DHT22;6208;48.956;9.076;2023-02-01T21:23:58;6.70;95.70
12291;DHT22;6208;48.956;9.076;2023-02-01T21:26:42;6.70;95.70
12291;DHT22;6208;48.956;9.076;2023-02-01T21:29:26;6.90;95.90
12291;DHT22;6208;48.956;9.076;2023-02-01T21:32:10;6.70;95.80
12291;DHT22;6208;48.956;9.076;2023-02-01T21:34:56;6.60;95.90
12291;DHT22;6208;48.956;9.076;2023-02-01T21:37:41;6.60;96.00
12291;DHT22;6208;48.956;9.076;2023-02-01T21:40:26;6.60;96.60
12291;DHT22;6208;48.956;9.076;2023-02-01T21:43:10;6.50;97.00
12291;DHT22;6208;48.956;9.076;2023-02-01T21:45:55;6.50;97.20
12291;DHT22;6208;48.956;9.076;2023-02-01T21:48:39;8.90;98.20
12291;DHT22;6208;48.956;9.076;2023-02-01T21:51:24;6.50;97.40
12291;DHT22;6208;48.956;9.076;2023-02-01T21:54:17;6.50;97.30
12291;DHT22;6208;48.956;9.076;2023-02-01T21:57:02;6.50;97.20
12291;DHT22;6208;48.956;9.076;2023-02-01T21:59:46;6.40;97.30
12291;DHT22;6208;48.956;9.076;2023-02-01T22:02:30;6.40;97.40